createdAt,value
2023-09-28T00:01:52.722Z,101329.64
2023-09-28T00:04:22.610Z,101341.22
2023-09-28T00:06:53.493Z,101343.27
2023-09-28T00:09:23.336Z,101343.27
2023-09-28T00:11:53.761Z,101351.70
2023-09-28T00:14:24.130Z,101351.70
2023-09-28T00:16:54.104Z,101364.34
2023-09-28T00:19:24.917Z,101372.30
2023-09-28T00:21:55.081Z,101372.30
2023-09-28T00:24:25.854Z,101371.70
2023-09-28T00:26:55.922Z,101377.83
2023-09-28T00:29:25.757Z,101366.70
2023-09-28T00:31:56.706Z,101366.70
2023-09-28T00:34:26.894Z,101370.52
2023-09-28T00:36:56.752Z,101370.52
2023-09-28T00:39:27.575Z,101381.07
2023-09-28T00:41:57.435Z,101381.07
2023-09-28T00:44:27.294Z,101384.02
2023-09-28T00:46:57.922Z,101383.41
2023-09-28T00:49:28.130Z,101385.89
2023-09-28T00:51:57.993Z,101376.52
2023-09-28T00:54:28.753Z,101377.64
2023-09-28T00:56:58.719Z,101358.39
2023-09-28T00:59:31.987Z,101382.22
2023-09-28T01:02:01.905Z,101382.22
2023-09-28T01:04:31.823Z,101372.36
2023-09-28T01:07:01.823Z,101366.56
2023-09-28T01:09:32.622Z,101366.91
2023-09-28T01:12:04.285Z,101376.76
2023-09-28T01:14:36.173Z,101377.42
2023-09-28T01:17:06.170Z,101386.25
2023-09-28T01:19:36.381Z,101387.03
2023-09-28T01:22:12.168Z,101387.03
2023-09-28T01:24:42.016Z,101377.38
2023-09-28T01:27:12.057Z,101366.59
2023-09-28T01:29:41.652Z,101377.66
2023-09-28T01:32:13.686Z,101377.66
2023-09-28T01:34:43.778Z,101379.19
2023-09-28T01:37:14.590Z,101389.40
2023-09-28T01:39:44.510Z,101390.12
2023-09-28T01:42:14.337Z,101392.11
2023-09-28T01:44:43.933Z,101388.09
2023-09-28T01:47:13.943Z,101388.32
2023-09-28T01:49:44.073Z,101386.27
2023-09-28T01:52:15.632Z,101387.88
2023-09-28T01:54:45.773Z,101394.09
2023-09-28T01:57:15.600Z,101402.74
2023-09-28T01:59:45.809Z,101404.06
2023-09-28T02:02:17.591Z,101394.37
2023-09-28T02:04:47.603Z,101410.20
2023-09-28T02:07:18.166Z,101410.20
2023-09-28T02:09:48.301Z,101394.81
2023-09-28T02:12:18.542Z,101394.81
2023-09-28T02:14:48.670Z,101417.02
2023-09-28T02:17:18.868Z,101421.72
2023-09-28T02:19:51.385Z,101422.41
2023-09-28T02:22:20.948Z,101423.53
2023-09-28T02:24:52.443Z,101434.92
2023-09-28T02:27:23.217Z,101435.47
2023-09-28T02:29:54.198Z,101437.47
2023-09-28T02:32:24.165Z,101439.41
2023-09-28T02:34:54.043Z,101426.55
2023-09-28T02:37:23.857Z,101431.58
2023-09-28T02:39:54.137Z,101435.18
2023-09-28T02:42:24.349Z,101421.09
2023-09-28T02:44:54.498Z,101439.62
2023-09-28T02:47:24.524Z,101422.59
2023-09-28T02:49:55.658Z,101427.75
2023-09-28T02:52:25.546Z,101421.59
2023-09-28T02:54:55.464Z,101431.70
2023-09-28T02:57:25.462Z,101438.34
2023-09-28T02:59:55.659Z,101431.10
2023-09-28T03:02:25.556Z,101431.10
2023-09-28T03:04:55.562Z,101439.67
2023-09-28T03:07:25.401Z,101451.11
2023-09-28T03:09:55.547Z,101449.42
2023-09-28T03:12:25.734Z,101431.27
2023-09-28T03:14:55.869Z,101450.88
2023-09-28T03:17:25.736Z,101447.25
2023-09-28T03:19:56.032Z,101453.28
2023-09-28T03:22:25.895Z,101454.13
2023-09-28T03:24:56.392Z,101456.55
2023-09-28T03:27:25.929Z,101456.52
2023-09-28T03:29:56.138Z,101447.73
2023-09-28T03:32:26.021Z,101457.28
2023-09-28T03:34:56.223Z,101464.27
2023-09-28T03:37:26.016Z,101464.27
2023-09-28T03:39:58.016Z,101477.05
2023-09-28T03:42:28.034Z,101479.55
2023-09-28T03:44:58.358Z,101473.35
2023-09-28T03:47:28.301Z,101473.35
2023-09-28T03:49:58.532Z,101491.28
2023-09-28T03:52:28.457Z,101494.37
2023-09-28T03:54:58.721Z,101501.45
2023-09-28T03:57:28.647Z,101501.45
2023-09-28T03:59:58.833Z,101500.27
2023-09-28T04:02:30.642Z,101499.23
2023-09-28T04:05:00.519Z,101511.66
2023-09-28T04:07:30.958Z,101514.38
2023-09-28T04:10:00.777Z,101514.00
2023-09-28T04:12:30.704Z,101518.18
2023-09-28T04:15:00.826Z,101500.06
2023-09-28T04:17:31.250Z,101500.06
2023-09-28T04:20:01.426Z,101511.47
2023-09-28T04:22:31.164Z,101512.44
2023-09-28T04:25:00.996Z,101499.05
2023-09-28T04:27:30.852Z,101499.05
2023-09-28T04:30:00.713Z,101514.23
2023-09-28T04:32:31.076Z,101513.34
2023-09-28T04:35:01.315Z,101521.80
2023-09-28T04:37:31.248Z,101523.91
2023-09-28T04:40:01.387Z,101516.68
2023-09-28T04:42:31.376Z,101513.08
2023-09-28T04:45:01.234Z,101514.64
2023-09-28T04:47:31.425Z,101500.85
2023-09-28T04:50:02.906Z,101500.85
2023-09-28T04:52:32.489Z,101517.91
2023-09-28T04:55:02.524Z,101525.22
2023-09-28T04:57:33.889Z,101530.53
2023-09-28T05:00:05.493Z,101515.59
2023-09-28T05:02:35.556Z,101515.59
2023-09-28T05:05:07.350Z,101530.58
2023-09-28T05:07:37.228Z,101533.30
2023-09-28T05:10:09.176Z,101540.99
2023-09-28T05:12:39.501Z,101552.18
2023-09-28T05:15:09.849Z,101558.80
2023-09-28T05:17:39.830Z,101562.86
2023-09-28T05:20:10.299Z,101565.88
2023-09-28T05:22:41.482Z,101572.58
2023-09-28T05:25:11.343Z,101572.24
2023-09-28T05:27:41.547Z,101576.68
2023-09-28T05:30:13.260Z,101580.74
2023-09-28T05:32:43.528Z,101579.27
2023-09-28T05:35:13.108Z,101587.46
2023-09-28T05:37:43.240Z,101585.39
2023-09-28T05:40:14.455Z,101588.32
2023-09-28T05:42:44.752Z,101596.25
2023-09-28T05:45:14.330Z,101599.49
2023-09-28T05:47:44.410Z,101607.32
2023-09-28T05:50:16.726Z,101592.56
2023-09-28T05:52:48.174Z,101614.34
2023-09-28T05:55:18.007Z,101620.04
2023-09-28T05:57:48.022Z,101620.52
2023-09-28T06:00:18.710Z,101623.10
2023-09-28T06:02:48.938Z,101614.19
2023-09-28T06:05:18.912Z,101614.19
2023-09-28T06:07:48.765Z,101629.82
2023-09-28T06:10:18.654Z,101644.61
2023-09-28T06:12:48.502Z,101644.61
2023-09-28T06:15:18.658Z,101646.08
2023-09-28T06:17:48.503Z,101651.24
2023-09-28T06:20:20.241Z,101653.41
2023-09-28T06:22:50.482Z,101635.55
2023-09-28T06:25:20.346Z,101625.55
2023-09-28T06:27:50.210Z,101625.55
2023-09-28T06:30:19.779Z,101645.11
2023-09-28T06:32:49.687Z,101640.52
2023-09-28T06:35:19.646Z,101624.52
2023-09-28T06:37:50.863Z,101637.70
2023-09-28T06:40:20.843Z,101642.39
2023-09-28T06:42:50.995Z,101642.39
2023-09-28T06:45:21.032Z,101653.23
2023-09-28T06:47:58.099Z,101648.50
2023-09-28T06:50:23.838Z,101662.67
2023-09-28T06:52:53.930Z,101670.84
2023-09-28T06:55:26.497Z,101670.39
2023-09-28T06:57:56.609Z,101663.34
2023-09-28T07:00:26.474Z,101663.34
2023-09-28T07:02:56.496Z,101670.44
2023-09-28T07:05:26.355Z,101672.55
2023-09-28T07:07:56.540Z,101682.96
2023-09-28T07:10:26.443Z,101690.70
2023-09-28T07:12:56.557Z,101678.63
2023-09-28T07:15:26.179Z,101678.63
2023-09-28T07:17:56.859Z,101696.03
2023-09-28T07:20:27.438Z,101696.03
2023-09-28T07:22:57.980Z,101709.06
2023-09-28T07:25:28.648Z,101711.58
2023-09-28T07:27:58.840Z,101689.43
2023-09-28T07:30:28.836Z,101689.43
2023-09-28T07:32:59.059Z,101700.00
2023-09-28T07:35:29.058Z,101688.51
2023-09-28T07:37:59.054Z,101670.26
2023-09-28T07:40:46.304Z,101670.26
2023-09-28T07:43:01.067Z,101683.87
2023-09-28T07:45:31.643Z,101683.87
2023-09-28T07:48:02.813Z,101718.22
2023-09-28T07:50:32.766Z,101718.22
2023-09-28T07:53:02.716Z,101717.02
2023-09-28T07:55:32.727Z,101724.78
2023-09-28T07:58:23.340Z,101743.55
2023-09-28T08:00:34.204Z,101738.30
2023-09-28T08:03:04.952Z,101738.89
2023-09-28T08:05:34.928Z,101750.03
2023-09-28T08:08:14.859Z,101741.27
2023-09-28T08:10:36.690Z,101749.37
2023-09-28T08:13:07.520Z,101749.79
2023-09-28T08:15:37.725Z,101735.92
2023-09-28T08:18:07.996Z,101738.96
2023-09-28T08:20:38.179Z,101738.96
2023-09-28T08:23:08.483Z,101740.52
2023-09-28T08:25:38.353Z,101740.52
2023-09-28T08:28:08.518Z,101767.66
2023-09-28T08:30:38.361Z,101742.88
2023-09-28T08:33:09.169Z,101742.88
2023-09-28T08:35:39.174Z,101766.52
2023-09-28T08:38:09.357Z,101763.17
2023-09-28T08:40:39.306Z,101753.23
2023-09-28T08:43:12.341Z,101736.86
2023-09-28T08:45:42.724Z,101736.86
2023-09-28T08:48:14.288Z,101743.41
2023-09-28T08:50:47.067Z,101743.41
2023-09-28T08:53:18.182Z,101767.33
2023-09-28T08:55:48.932Z,101768.41
2023-09-28T08:58:20.199Z,101799.17
2023-09-28T09:00:50.405Z,101809.63
2023-09-28T09:03:22.676Z,101799.21
2023-09-28T09:05:54.085Z,101798.70
2023-09-28T09:08:25.100Z,101796.87
2023-09-28T09:10:56.180Z,101787.88
2023-09-28T09:13:26.051Z,101795.69
2023-09-28T09:15:56.941Z,101795.69
2023-09-28T09:18:27.570Z,101811.62
2023-09-28T09:21:01.936Z,101797.41
2023-09-28T09:23:33.087Z,101788.80
2023-09-28T09:26:03.417Z,101788.80
2023-09-28T09:28:35.707Z,101793.25
2023-09-28T09:31:06.091Z,101793.25
2023-09-28T09:33:37.110Z,101802.86
2023-09-28T09:36:07.139Z,101809.89
2023-09-28T09:38:36.952Z,101816.58
2023-09-28T09:41:06.961Z,101811.90
2023-09-28T09:43:38.514Z,101792.55
2023-09-28T09:46:10.073Z,101792.55
2023-09-28T09:48:44.633Z,101799.16
2023-09-28T09:51:16.771Z,101802.44
2023-09-28T09:53:49.916Z,101796.79
2023-09-28T09:56:19.770Z,101796.55
2023-09-28T09:58:51.378Z,101794.41
2023-09-28T10:01:21.708Z,101803.95
2023-09-28T10:03:54.173Z,101804.84
2023-09-28T10:06:24.707Z,101797.59
2023-09-28T10:08:55.282Z,101792.14
2023-09-28T10:11:26.045Z,101778.79
2023-09-28T10:13:57.533Z,101778.79
2023-09-28T10:16:28.723Z,101780.39
2023-09-28T10:18:59.453Z,101780.39
2023-09-28T10:21:29.640Z,101790.90
2023-09-28T10:23:59.532Z,101779.24
2023-09-28T10:26:32.457Z,101776.19
2023-09-28T10:29:10.288Z,101775.42
2023-09-28T10:34:21.840Z,101779.20
2023-09-28T10:37:14.165Z,101786.09
2023-09-28T10:39:44.008Z,101779.98
2023-09-28T10:42:21.386Z,101778.00
2023-09-28T10:44:52.446Z,101777.11
2023-09-28T10:47:22.964Z,101779.57
2023-09-28T10:50:03.149Z,101776.22
2023-09-28T10:52:32.784Z,101793.69
2023-09-28T10:55:02.635Z,101789.27
2023-09-28T10:57:35.311Z,101793.09
2023-09-28T11:00:10.111Z,101793.94
2023-09-28T11:02:41.661Z,101790.98
2023-09-28T11:05:12.073Z,101791.55
2023-09-28T11:07:42.088Z,101791.38
2023-09-28T11:10:12.877Z,101792.84
2023-09-28T11:12:43.749Z,101802.55
2023-09-28T11:15:14.954Z,101812.73
2023-09-28T11:17:45.425Z,101804.17
2023-09-28T11:20:15.589Z,101806.14
2023-09-28T11:22:46.245Z,101810.73
2023-09-28T11:25:22.881Z,101816.27
2023-09-28T11:27:47.363Z,101820.72
2023-09-28T11:30:20.912Z,101798.66
2023-09-28T11:32:54.624Z,101798.66
2023-09-28T11:35:27.880Z,101812.83
2023-09-28T11:38:08.553Z,101794.80
2023-09-28T11:40:39.686Z,101817.34
2023-09-28T11:43:12.365Z,101814.22
2023-09-28T11:45:43.757Z,101811.98
2023-09-28T11:48:13.643Z,101813.92
2023-09-28T11:50:43.861Z,101797.32
2023-09-28T11:53:14.117Z,101795.55
2023-09-28T11:55:49.496Z,101795.55
2023-09-28T11:58:24.819Z,101802.73
2023-09-28T12:00:54.726Z,101793.38
2023-09-28T12:03:24.598Z,101795.69
2023-09-28T12:05:55.300Z,101793.50
2023-09-28T12:08:25.454Z,101806.84
2023-09-28T12:10:57.007Z,101803.45
2023-09-28T12:13:28.099Z,101789.79
2023-09-28T12:18:29.080Z,101794.08
2023-09-28T12:20:59.437Z,101802.73
2023-09-28T12:23:29.445Z,101801.06
2023-09-28T12:26:00.988Z,101803.74
2023-09-28T12:28:30.950Z,101794.45
2023-09-28T12:31:00.819Z,101788.87
2023-09-28T12:33:30.638Z,101787.54
2023-09-28T12:36:00.936Z,101785.78
2023-09-28T12:38:30.661Z,101782.17
2023-09-28T12:41:01.111Z,101789.00
2023-09-28T12:43:32.247Z,101788.55
2023-09-28T12:46:02.667Z,101784.96
2023-09-28T12:48:32.501Z,101791.96
2023-09-28T12:51:02.409Z,101786.74
2023-09-28T12:53:34.353Z,101786.74
2023-09-28T12:56:04.527Z,101782.34
2023-09-28T12:58:34.575Z,101783.72
2023-09-28T13:01:04.509Z,101782.06
2023-09-28T13:03:34.575Z,101773.84
2023-09-28T13:06:06.170Z,101758.54
2023-09-28T13:08:36.639Z,101763.34
2023-09-28T13:11:07.401Z,101753.13
2023-09-28T13:13:38.979Z,101756.92
2023-09-28T13:16:09.168Z,101759.67
2023-09-28T13:18:39.025Z,101753.23
2023-09-28T13:21:09.835Z,101752.69
2023-09-28T13:23:39.524Z,101739.53
2023-09-28T13:26:12.427Z,101739.53
2023-09-28T13:28:42.387Z,101741.22
2023-09-28T13:31:12.240Z,101732.56
2023-09-28T13:33:42.098Z,101733.70
2023-09-28T13:36:13.652Z,101732.85
2023-09-28T13:38:44.140Z,101741.29
2023-09-28T13:41:15.109Z,101741.02
2023-09-28T13:43:45.573Z,101747.44
2023-09-28T13:46:15.139Z,101754.11
2023-09-28T13:48:44.984Z,101761.14
2023-09-28T13:51:14.936Z,101759.73
2023-09-28T13:53:46.040Z,101754.42
2023-09-28T13:56:17.085Z,101756.84
2023-09-28T13:58:46.967Z,101747.70
2023-09-28T14:01:17.444Z,101752.17
2023-09-28T14:03:47.441Z,101757.47
2023-09-28T14:06:17.276Z,101757.18
2023-09-28T14:08:47.661Z,101756.88
2023-09-28T14:11:19.193Z,101760.49
2023-09-28T14:13:49.469Z,101759.64
2023-09-28T14:16:19.239Z,101762.77
2023-09-28T14:18:49.165Z,101754.60
2023-09-28T14:21:19.438Z,101767.98
2023-09-28T14:23:49.965Z,101765.91
2023-09-28T14:26:20.222Z,101771.58
2023-09-28T14:28:50.474Z,101772.44
2023-09-28T14:31:21.858Z,101770.00
2023-09-28T14:33:51.965Z,101770.91
2023-09-28T14:36:23.292Z,101759.70
2023-09-28T14:38:53.377Z,101751.08
2023-09-28T14:41:24.496Z,101752.97
2023-09-28T14:43:54.711Z,101747.58
2023-09-28T14:46:24.677Z,101740.58
2023-09-28T14:48:54.634Z,101732.89
2023-09-28T14:51:26.255Z,101720.61
2023-09-28T14:53:56.247Z,101717.16
2023-09-28T14:56:26.036Z,101708.80
2023-09-28T14:58:57.030Z,101688.70
2023-09-28T15:01:26.964Z,101698.34
2023-09-28T15:03:57.268Z,101688.31
2023-09-28T15:06:27.652Z,101700.95
2023-09-28T15:08:57.651Z,101700.95
2023-09-28T15:11:27.562Z,101692.45
2023-09-28T15:13:57.351Z,101685.80
2023-09-28T15:16:27.323Z,101683.81
2023-09-28T15:18:57.203Z,101675.05
2023-09-28T15:21:27.510Z,101680.83
2023-09-28T15:23:58.810Z,101683.64
2023-09-28T15:26:28.545Z,101682.55
2023-09-28T15:28:58.441Z,101685.64
2023-09-28T15:31:28.611Z,101698.19
2023-09-28T15:33:58.443Z,101694.02
2023-09-28T15:36:31.025Z,101695.93
2023-09-28T15:39:01.172Z,101692.30
2023-09-28T15:41:40.038Z,101686.64
2023-09-28T15:44:10.962Z,101690.30
2023-09-28T15:46:41.759Z,101684.84
2023-09-28T15:49:12.222Z,101676.41
2023-09-28T15:51:42.052Z,101684.58
2023-09-28T15:54:13.559Z,101680.30
2023-09-28T15:56:44.025Z,101690.28
2023-09-28T15:59:13.823Z,101683.91
2023-09-28T16:01:44.723Z,101690.27
2023-09-28T16:04:14.793Z,101696.11
2023-09-28T16:06:44.872Z,101696.11
2023-09-28T16:09:14.791Z,101686.71
2023-09-28T16:11:45.022Z,101691.34
2023-09-28T16:14:15.145Z,101681.97
2023-09-28T16:16:45.005Z,101683.92
2023-09-28T16:19:15.031Z,101685.26
2023-09-28T16:21:44.895Z,101684.77
2023-09-28T16:24:15.985Z,101685.44
2023-09-28T16:26:45.856Z,101680.86
2023-09-28T16:29:15.792Z,101683.09
2023-09-28T16:31:46.057Z,101674.13
2023-09-28T16:34:15.920Z,101668.73
2023-09-28T16:36:47.470Z,101663.45
2023-09-28T16:39:18.000Z,101662.62
2023-09-28T16:41:47.912Z,101666.50
2023-09-28T16:44:17.799Z,101660.16
2023-09-28T16:46:47.649Z,101648.98
2023-09-28T16:49:17.806Z,101653.94
2023-09-28T16:51:47.759Z,101648.03
2023-09-28T16:54:19.576Z,101644.08
2023-09-28T16:56:49.426Z,101643.25
2023-09-28T16:59:19.106Z,101653.08
2023-09-28T17:01:49.141Z,101646.89
2023-09-28T17:04:19.102Z,101655.64
2023-09-28T17:06:49.121Z,101647.30
2023-09-28T17:09:18.995Z,101656.86
2023-09-28T17:11:48.884Z,101660.70
2023-09-28T17:14:18.766Z,101665.83
2023-09-28T17:16:50.263Z,101656.72
2023-09-28T17:19:20.528Z,101633.41
2023-09-28T17:21:50.452Z,101633.41
2023-09-28T17:24:20.376Z,101652.44
2023-09-28T17:26:50.475Z,101650.11
2023-09-28T17:29:22.470Z,101656.03
2023-09-28T17:31:51.992Z,101668.16
2023-09-28T17:34:22.095Z,101661.77
2023-09-28T17:36:52.299Z,101668.93
2023-09-28T17:39:23.806Z,101667.07
2023-09-28T17:41:53.382Z,101660.29
2023-09-28T17:44:23.204Z,101660.29
2023-09-28T17:46:53.085Z,101679.38
2023-09-28T17:49:22.927Z,101673.35
2023-09-28T17:51:53.143Z,101674.72
2023-09-28T17:54:23.059Z,101674.69
2023-09-28T17:56:52.893Z,101672.35
2023-09-28T17:59:23.557Z,101682.59
2023-09-28T18:01:53.601Z,101679.69
2023-09-28T18:04:23.432Z,101693.28
2023-09-28T18:06:53.827Z,101698.33
2023-09-28T18:09:23.702Z,101697.29
2023-09-28T18:11:54.272Z,101692.89
2023-09-28T18:14:24.060Z,101690.90
2023-09-28T18:16:53.632Z,101690.66
2023-09-28T18:19:23.833Z,101694.75
2023-09-28T18:21:53.920Z,101703.30
2023-09-28T18:24:24.235Z,101693.58
2023-09-28T18:26:54.128Z,101697.06
2023-09-28T18:29:25.662Z,101698.77
2023-09-28T18:31:55.915Z,101694.55
2023-09-28T18:34:25.781Z,101689.94
2023-09-28T18:36:55.639Z,101708.26
2023-09-28T18:39:25.506Z,101708.76
2023-09-28T18:41:55.403Z,101704.46
2023-09-28T18:44:27.466Z,101698.92
2023-09-28T18:46:57.569Z,101696.67
2023-09-28T18:49:27.416Z,101700.69
2023-09-28T18:51:57.727Z,101699.52
2023-09-28T18:54:28.254Z,101697.79
2023-09-28T18:56:58.084Z,101701.33
2023-09-28T18:59:28.208Z,101696.34
2023-09-28T19:01:58.898Z,101696.62
2023-09-28T19:04:31.167Z,101702.90
2023-09-28T19:07:01.619Z,101703.08
2023-09-28T19:09:32.441Z,101698.41
2023-09-28T19:12:03.377Z,101699.77
2023-09-28T19:14:35.468Z,101705.78
2023-09-28T19:17:05.939Z,101697.69
2023-09-28T19:19:35.770Z,101704.51
2023-09-28T19:22:06.864Z,101701.55
2023-09-28T19:24:38.063Z,101693.49
2023-09-28T19:27:09.376Z,101692.55
2023-09-28T19:29:39.233Z,101687.59
2023-09-28T19:32:10.260Z,101679.64
2023-09-28T19:34:40.164Z,101666.73
2023-09-28T19:37:10.055Z,101675.52
2023-09-28T19:39:39.654Z,101677.83
2023-09-28T19:42:10.535Z,101677.20
2023-09-28T19:44:40.890Z,101674.43
2023-09-28T19:47:10.755Z,101669.98
2023-09-28T19:49:40.678Z,101668.69
2023-09-28T19:52:10.282Z,101661.61
2023-09-28T19:54:40.131Z,101660.85
2023-09-28T19:57:10.144Z,101653.22
2023-09-28T19:59:41.544Z,101652.38
2023-09-28T20:02:11.773Z,101653.31
2023-09-28T20:04:41.618Z,101655.48
2023-09-28T20:07:11.538Z,101657.55
2023-09-28T20:09:41.365Z,101663.17
2023-09-28T20:12:12.130Z,101671.47
2023-09-28T20:14:41.998Z,101672.09
2023-09-28T20:17:11.648Z,101668.66
2023-09-28T20:19:43.288Z,101670.04
2023-09-28T20:22:13.886Z,101669.91
2023-09-28T20:24:45.559Z,101657.58
2023-09-28T20:27:15.404Z,101682.19
2023-09-28T20:29:45.276Z,101682.19
2023-09-28T20:32:15.502Z,101666.34
2023-09-28T20:34:45.547Z,101666.34
2023-09-28T20:37:15.386Z,101670.87
2023-09-28T20:39:45.399Z,101680.14
2023-09-28T20:42:16.547Z,101670.95
2023-09-28T20:44:46.619Z,101660.40
2023-09-28T20:47:16.851Z,101651.84
2023-09-28T20:49:46.984Z,101642.33
2023-09-28T20:52:16.831Z,101645.00
2023-09-28T20:54:46.669Z,101641.73
2023-09-28T20:57:16.574Z,101633.64
2023-09-28T20:59:46.448Z,101631.00
2023-09-28T21:02:16.629Z,101635.66
2023-09-28T21:04:46.860Z,101643.14
2023-09-28T21:07:16.691Z,101612.01
2023-09-28T21:09:46.848Z,101612.01
2023-09-28T21:12:17.404Z,101628.95
2023-09-28T21:14:47.424Z,101631.69
2023-09-28T21:17:17.629Z,101631.22
2023-09-28T21:19:47.608Z,101632.95
2023-09-28T21:22:17.302Z,101626.45
2023-09-28T21:24:47.528Z,101626.45
2023-09-28T21:27:17.354Z,101643.66
2023-09-28T21:29:47.252Z,101637.14
2023-09-28T21:32:17.230Z,101639.49
2023-09-28T21:34:47.106Z,101630.71
2023-09-28T21:37:16.946Z,101630.71
2023-09-28T21:39:47.089Z,101647.31
2023-09-28T21:42:16.834Z,101649.55
2023-09-28T21:44:46.806Z,101643.56
2023-09-28T21:47:16.891Z,101652.28
2023-09-28T21:49:47.046Z,101654.88
2023-09-28T21:52:16.599Z,101651.28
2023-09-28T21:54:46.450Z,101652.03
2023-09-28T21:57:16.278Z,101650.73
2023-09-28T21:59:46.155Z,101648.27
2023-09-28T22:02:15.673Z,101649.09
2023-09-28T22:04:46.221Z,101648.25
2023-09-28T22:07:16.057Z,101645.41
2023-09-28T22:09:45.986Z,101642.83
2023-09-28T22:12:15.530Z,101637.13
2023-09-28T22:14:45.438Z,101611.54
2023-09-28T22:17:15.860Z,101611.54
2023-09-28T22:19:45.698Z,101629.39
2023-09-28T22:22:15.536Z,101621.89
2023-09-28T22:24:45.387Z,101623.31
2023-09-28T22:27:15.323Z,101622.50
2023-09-28T22:29:45.152Z,101619.38
2023-09-28T22:32:15.061Z,101619.72
2023-09-28T22:34:44.890Z,101618.62
2023-09-28T22:37:14.725Z,101624.75
2023-09-28T22:39:45.338Z,101624.66
2023-09-28T22:42:14.894Z,101633.47
2023-09-28T22:44:44.448Z,101627.98
2023-09-28T22:47:14.483Z,101627.02
2023-09-28T22:49:44.564Z,101631.34
2023-09-28T22:52:14.881Z,101634.44
2023-09-28T22:54:44.423Z,101625.42
2023-09-28T22:57:14.766Z,101632.01
2023-09-28T22:59:44.665Z,101638.70
2023-09-28T23:02:14.620Z,101628.35
2023-09-28T23:04:44.544Z,101628.35
2023-09-28T23:07:14.389Z,101639.30
2023-09-28T23:09:44.228Z,101628.91
2023-09-28T23:12:14.395Z,101628.91
2023-09-28T23:14:46.060Z,101641.20
2023-09-28T23:17:15.918Z,101642.70
2023-09-28T23:19:45.763Z,101643.20
2023-09-28T23:22:15.321Z,101637.74
2023-09-28T23:24:45.219Z,101635.73
2023-09-28T23:27:15.084Z,101627.69
2023-09-28T23:29:45.070Z,101624.97
2023-09-28T23:32:15.542Z,101628.08
2023-09-28T23:34:46.779Z,101629.45
2023-09-28T23:37:17.227Z,101630.80
2023-09-28T23:39:47.084Z,101630.63
2023-09-28T23:42:17.133Z,101630.80
2023-09-28T23:44:46.985Z,101629.42
2023-09-28T23:47:16.557Z,101619.31
2023-09-28T23:49:46.389Z,101615.08
2023-09-28T23:52:16.235Z,101606.83
2023-09-28T23:54:48.054Z,101605.31
2023-09-28T23:57:17.888Z,101609.87
2023-09-28T23:59:47.758Z,101605.38
